Abiquiu, New Mexico
Current Conditions -  °F | °C
As of 7:55 AM on Friday 31 Oct 2014 (Local Time) from KLAM Reporting Station
Clear Clear  
Wind Chill: 37°   Ceiling: Unl
Heat Index: 42°   Visibility: 10mi
Dew Point: 24°   Wind: 9mph
Humidity: 49%   Direction: 220°SW
Pressure: 30.46"   Gusts: NA
Location:  36.21°N, 106.32°W
Report Text: KLAM 311355Z AUTO 22008KT 10SM CLR 06/M04 A3046 RMK AO2 T00561045
Loading
Personal Weather Stations






























Interactive Weather Map
Tropical Storm Tracking
New forecast layout! Learn more

10-Day Weather Forecast

Advertisements
Track Severe Weather on mobile